sensor_id;sensor_type;location;lat;lon;timestamp;P1;durP1;ratioP1;P2;durP2;ratioP2
52102;SDS011;38101;53.126;6.878;2023-07-30T00:01:49;8.60;;;3.65;;
52102;SDS011;38101;53.126;6.878;2023-07-30T00:04:15;7.45;;;4.25;;
52102;SDS011;38101;53.126;6.878;2023-07-30T00:06:40;8.82;;;4.07;;
52102;SDS011;38101;53.126;6.878;2023-07-30T00:09:06;8.10;;;4.05;;
52102;SDS011;38101;53.126;6.878;2023-07-30T00:11:32;8.50;;;3.90;;
52102;SDS011;38101;53.126;6.878;2023-07-30T00:13:57;7.60;;;3.70;;
52102;SDS011;38101;53.126;6.878;2023-07-30T00:16:25;9.10;;;3.80;;
52102;SDS011;38101;53.126;6.878;2023-07-30T00:18:51;6.90;;;3.63;;
52102;SDS011;38101;53.126;6.878;2023-07-30T00:21:16;9.23;;;3.60;;
52102;SDS011;38101;53.126;6.878;2023-07-30T00:23:42;7.60;;;3.83;;
52102;SDS011;38101;53.126;6.878;2023-07-30T00:26:08;8.23;;;3.72;;
52102;SDS011;38101;53.126;6.878;2023-07-30T00:28:33;8.57;;;3.95;;
52102;SDS011;38101;53.126;6.878;2023-07-30T00:30:59;8.25;;;3.78;;
52102;SDS011;38101;53.126;6.878;2023-07-30T00:33:24;7.20;;;3.75;;
52102;SDS011;38101;53.126;6.878;2023-07-30T00:35:51;8.48;;;3.70;;
52102;SDS011;38101;53.126;6.878;2023-07-30T00:38:17;9.45;;;4.15;;
52102;SDS011;38101;53.126;6.878;2023-07-30T00:40:43;7.65;;;3.70;;
52102;SDS011;38101;53.126;6.878;2023-07-30T00:43:09;10.02;;;4.38;;
52102;SDS011;38101;53.126;6.878;2023-07-30T00:45:35;8.18;;;3.90;;
52102;SDS011;38101;53.126;6.878;2023-07-30T00:48:01;6.95;;;3.60;;
52102;SDS011;38101;53.126;6.878;2023-07-30T00:50:27;9.25;;;3.90;;
52102;SDS011;38101;53.126;6.878;2023-07-30T00:52:53;9.25;;;3.95;;
52102;SDS011;38101;53.126;6.878;2023-07-30T00:55:19;8.55;;;3.70;;
52102;SDS011;38101;53.126;6.878;2023-07-30T00:57:45;9.52;;;4.22;;
52102;SDS011;38101;53.126;6.878;2023-07-30T01:00:11;6.78;;;3.60;;
52102;SDS011;38101;53.126;6.878;2023-07-30T01:02:37;8.13;;;3.90;;
52102;SDS011;38101;53.126;6.878;2023-07-30T01:05:03;7.65;;;4.35;;
52102;SDS011;38101;53.126;6.878;2023-07-30T01:07:30;9.45;;;3.95;;
52102;SDS011;38101;53.126;6.878;2023-07-30T01:09:56;12.32;;;4.43;;
52102;SDS011;38101;53.126;6.878;2023-07-30T01:12:22;8.00;;;4.03;;
52102;SDS011;38101;53.126;6.878;2023-07-30T01:14:48;6.25;;;3.88;;
52102;SDS011;38101;53.126;6.878;2023-07-30T01:17:15;9.93;;;4.85;;
52102;SDS011;38101;53.126;6.878;2023-07-30T01:19:41;11.00;;;5.15;;
52102;SDS011;38101;53.126;6.878;2023-07-30T01:22:07;9.38;;;4.85;;
52102;SDS011;38101;53.126;6.878;2023-07-30T01:24:33;10.10;;;4.50;;
52102;SDS011;38101;53.126;6.878;2023-07-30T01:29:38;9.07;;;4.47;;
52102;SDS011;38101;53.126;6.878;2023-07-30T01:32:07;8.45;;;4.25;;
52102;SDS011;38101;53.126;6.878;2023-07-30T01:34:36;10.70;;;4.35;;
52102;SDS011;38101;53.126;6.878;2023-07-30T01:37:04;12.68;;;4.43;;
52102;SDS011;38101;53.126;6.878;2023-07-30T01:39:33;8.23;;;4.13;;
52102;SDS011;38101;53.126;6.878;2023-07-30T01:42:03;11.05;;;4.47;;
52102;SDS011;38101;53.126;6.878;2023-07-30T01:44:29;10.80;;;4.82;;
52102;SDS011;38101;53.126;6.878;2023-07-30T01:46:55;8.85;;;4.88;;
52102;SDS011;38101;53.126;6.878;2023-07-30T01:49:21;10.75;;;4.18;;
52102;SDS011;38101;53.126;6.878;2023-07-30T01:51:46;9.25;;;4.35;;
52102;SDS011;38101;53.126;6.878;2023-07-30T01:54:13;8.00;;;4.47;;
52102;SDS011;38101;53.126;6.878;2023-07-30T01:56:38;9.50;;;4.47;;
52102;SDS011;38101;53.126;6.878;2023-07-30T01:59:04;11.35;;;4.60;;
52102;SDS011;38101;53.126;6.878;2023-07-30T02:01:30;11.70;;;4.50;;
52102;SDS011;38101;53.126;6.878;2023-07-30T02:03:55;11.18;;;5.22;;
52102;SDS011;38101;53.126;6.878;2023-07-30T02:06:21;8.98;;;4.18;;
52102;SDS011;38101;53.126;6.878;2023-07-30T02:08:47;10.55;;;4.32;;
52102;SDS011;38101;53.126;6.878;2023-07-30T02:11:13;11.40;;;4.45;;
52102;SDS011;38101;53.126;6.878;2023-07-30T02:13:39;11.93;;;4.75;;
52102;SDS011;38101;53.126;6.878;2023-07-30T02:16:04;11.52;;;5.15;;
52102;SDS011;38101;53.126;6.878;2023-07-30T02:18:30;12.50;;;5.07;;
52102;SDS011;38101;53.126;6.878;2023-07-30T02:20:56;8.35;;;3.92;;
52102;SDS011;38101;53.126;6.878;2023-07-30T02:23:21;15.52;;;4.82;;
52102;SDS011;38101;53.126;6.878;2023-07-30T02:25:47;11.00;;;4.00;;
52102;SDS011;38101;53.126;6.878;2023-07-30T02:28:12;11.82;;;4.43;;
52102;SDS011;38101;53.126;6.878;2023-07-30T02:30:38;11.82;;;4.13;;
52102;SDS011;38101;53.126;6.878;2023-07-30T02:33:04;11.18;;;3.95;;
52102;SDS011;38101;53.126;6.878;2023-07-30T02:35:29;10.02;;;4.90;;
52102;SDS011;38101;53.126;6.878;2023-07-30T02:37:55;11.50;;;4.43;;
52102;SDS011;38101;53.126;6.878;2023-07-30T02:40:21;9.20;;;4.18;;
52102;SDS011;38101;53.126;6.878;2023-07-30T02:42:46;16.77;;;4.43;;
52102;SDS011;38101;53.126;6.878;2023-07-30T02:45:12;11.05;;;4.22;;
52102;SDS011;38101;53.126;6.878;2023-07-30T02:47:38;9.77;;;4.15;;
52102;SDS011;38101;53.126;6.878;2023-07-30T02:50:04;12.10;;;4.22;;
52102;SDS011;38101;53.126;6.878;2023-07-30T02:52:31;11.55;;;4.35;;
52102;SDS011;38101;53.126;6.878;2023-07-30T02:54:56;12.20;;;4.22;;
52102;SDS011;38101;53.126;6.878;2023-07-30T02:57:22;8.75;;;3.80;;
52102;SDS011;38101;53.126;6.878;2023-07-30T02:59:48;12.20;;;4.60;;
52102;SDS011;38101;53.126;6.878;2023-07-30T03:02:13;13.55;;;4.30;;
52102;SDS011;38101;53.126;6.878;2023-07-30T03:04:39;12.63;;;4.50;;
52102;SDS011;38101;53.126;6.878;2023-07-30T03:07:05;8.45;;;4.18;;
52102;SDS011;38101;53.126;6.878;2023-07-30T03:09:31;9.35;;;3.88;;
52102;SDS011;38101;53.126;6.878;2023-07-30T03:11:57;11.70;;;4.47;;
52102;SDS011;38101;53.126;6.878;2023-07-30T03:14:24;10.77;;;3.85;;
52102;SDS011;38101;53.126;6.878;2023-07-30T03:16:49;8.88;;;4.38;;
52102;SDS011;38101;53.126;6.878;2023-07-30T03:19:15;10.93;;;4.75;;
52102;SDS011;38101;53.126;6.878;2023-07-30T03:21:41;13.43;;;4.63;;
52102;SDS011;38101;53.126;6.878;2023-07-30T03:24:07;10.32;;;4.38;;
52102;SDS011;38101;53.126;6.878;2023-07-30T03:26:33;11.98;;;4.60;;
52102;SDS011;38101;53.126;6.878;2023-07-30T03:28:58;8.95;;;3.97;;
52102;SDS011;38101;53.126;6.878;2023-07-30T03:31:24;9.48;;;3.75;;
52102;SDS011;38101;53.126;6.878;2023-07-30T03:33:50;9.07;;;4.18;;
52102;SDS011;38101;53.126;6.878;2023-07-30T03:36:16;8.13;;;3.85;;
52102;SDS011;38101;53.126;6.878;2023-07-30T03:38:42;11.25;;;4.20;;
52102;SDS011;38101;53.126;6.878;2023-07-30T03:41:08;10.60;;;4.25;;
52102;SDS011;38101;53.126;6.878;2023-07-30T03:43:34;9.15;;;3.83;;
52102;SDS011;38101;53.126;6.878;2023-07-30T03:46:00;10.13;;;4.00;;
52102;SDS011;38101;53.126;6.878;2023-07-30T03:48:26;8.98;;;3.80;;
52102;SDS011;38101;53.126;6.878;2023-07-30T03:50:52;9.88;;;3.67;;
52102;SDS011;38101;53.126;6.878;2023-07-30T03:53:19;8.90;;;4.22;;
52102;SDS011;38101;53.126;6.878;2023-07-30T03:55:45;8.27;;;3.85;;
52102;SDS011;38101;53.126;6.878;2023-07-30T03:58:11;10.52;;;3.72;;
52102;SDS011;38101;53.126;6.878;2023-07-30T04:00:37;7.00;;;3.30;;
52102;SDS011;38101;53.126;6.878;2023-07-30T04:03:02;9.45;;;3.70;;
52102;SDS011;38101;53.126;6.878;2023-07-30T04:05:29;9.80;;;3.83;;
52102;SDS011;38101;53.126;6.878;2023-07-30T04:07:55;12.07;;;3.72;;
52102;SDS011;38101;53.126;6.878;2023-07-30T04:10:21;10.25;;;3.58;;
52102;SDS011;38101;53.126;6.878;2023-07-30T04:12:46;9.05;;;3.25;;
52102;SDS011;38101;53.126;6.878;2023-07-30T04:15:12;9.68;;;3.88;;
52102;SDS011;38101;53.126;6.878;2023-07-30T04:17:38;8.25;;;3.72;;
52102;SDS011;38101;53.126;6.878;2023-07-30T04:20:04;11.50;;;4.10;;
52102;SDS011;38101;53.126;6.878;2023-07-30T04:22:30;9.27;;;3.65;;
52102;SDS011;38101;53.126;6.878;2023-07-30T04:24:56;11.23;;;3.42;;
52102;SDS011;38101;53.126;6.878;2023-07-30T04:27:22;11.50;;;3.42;;
52102;SDS011;38101;53.126;6.878;2023-07-30T04:29:47;8.40;;;3.60;;
52102;SDS011;38101;53.126;6.878;2023-07-30T04:32:13;8.38;;;3.58;;
52102;SDS011;38101;53.126;6.878;2023-07-30T04:34:39;7.43;;;3.40;;
52102;SDS011;38101;53.126;6.878;2023-07-30T04:37:05;12.65;;;4.13;;
52102;SDS011;38101;53.126;6.878;2023-07-30T04:39:34;13.05;;;4.10;;
52102;SDS011;38101;53.126;6.878;2023-07-30T04:42:00;8.15;;;3.50;;
52102;SDS011;38101;53.126;6.878;2023-07-30T04:44:26;6.95;;;3.90;;
52102;SDS011;38101;53.126;6.878;2023-07-30T04:46:52;10.70;;;3.67;;
52102;SDS011;38101;53.126;6.878;2023-07-30T04:49:18;11.45;;;4.00;;
52102;SDS011;38101;53.126;6.878;2023-07-30T04:51:43;11.10;;;3.70;;
52102;SDS011;38101;53.126;6.878;2023-07-30T04:54:09;11.80;;;3.85;;
52102;SDS011;38101;53.126;6.878;2023-07-30T04:56:35;10.98;;;3.47;;
52102;SDS011;38101;53.126;6.878;2023-07-30T04:59:01;10.60;;;3.60;;
52102;SDS011;38101;53.126;6.878;2023-07-30T05:01:27;10.05;;;3.42;;
52102;SDS011;38101;53.126;6.878;2023-07-30T05:03:52;8.55;;;3.40;;
52102;SDS011;38101;53.126;6.878;2023-07-30T05:06:18;10.85;;;3.85;;
52102;SDS011;38101;53.126;6.878;2023-07-30T05:08:44;8.10;;;3.75;;
52102;SDS011;38101;53.126;6.878;2023-07-30T05:11:09;13.48;;;4.22;;
52102;SDS011;38101;53.126;6.878;2023-07-30T05:13:35;11.02;;;4.13;;
52102;SDS011;38101;53.126;6.878;2023-07-30T05:16:01;9.02;;;3.83;;
52102;SDS011;38101;53.126;6.878;2023-07-30T05:18:27;10.43;;;3.67;;
52102;SDS011;38101;53.126;6.878;2023-07-30T05:20:53;8.45;;;3.80;;
52102;SDS011;38101;53.126;6.878;2023-07-30T05:23:19;8.52;;;3.75;;
52102;SDS011;38101;53.126;6.878;2023-07-30T05:25:45;8.65;;;3.25;;
52102;SDS011;38101;53.126;6.878;2023-07-30T05:28:11;8.23;;;3.50;;
52102;SDS011;38101;53.126;6.878;2023-07-30T05:30:36;8.80;;;3.75;;
52102;SDS011;38101;53.126;6.878;2023-07-30T05:33:02;11.88;;;4.10;;
52102;SDS011;38101;53.126;6.878;2023-07-30T05:35:28;8.65;;;3.80;;
52102;SDS011;38101;53.126;6.878;2023-07-30T05:37:53;11.77;;;3.50;;
52102;SDS011;38101;53.126;6.878;2023-07-30T05:40:19;11.77;;;4.00;;
52102;SDS011;38101;53.126;6.878;2023-07-30T05:42:45;8.27;;;3.78;;
52102;SDS011;38101;53.126;6.878;2023-07-30T05:45:11;8.90;;;3.47;;
52102;SDS011;38101;53.126;6.878;2023-07-30T05:47:37;10.65;;;3.63;;
52102;SDS011;38101;53.126;6.878;2023-07-30T05:50:03;11.07;;;3.97;;
52102;SDS011;38101;53.126;6.878;2023-07-30T05:52:29;7.35;;;3.70;;
52102;SDS011;38101;53.126;6.878;2023-07-30T05:54:55;9.07;;;3.65;;
52102;SDS011;38101;53.126;6.878;2023-07-30T05:57:20;10.30;;;3.72;;
52102;SDS011;38101;53.126;6.878;2023-07-30T05:59:46;10.18;;;3.67;;
52102;SDS011;38101;53.126;6.878;2023-07-30T06:02:12;10.05;;;3.75;;
52102;SDS011;38101;53.126;6.878;2023-07-30T06:04:37;7.65;;;3.40;;
52102;SDS011;38101;53.126;6.878;2023-07-30T06:07:03;10.73;;;3.53;;
52102;SDS011;38101;53.126;6.878;2023-07-30T06:09:29;9.00;;;3.70;;
52102;SDS011;38101;53.126;6.878;2023-07-30T06:11:56;12.82;;;3.70;;
52102;SDS011;38101;53.126;6.878;2023-07-30T06:14:25;10.15;;;3.88;;
52102;SDS011;38101;53.126;6.878;2023-07-30T06:16:52;9.77;;;4.10;;
52102;SDS011;38101;53.126;6.878;2023-07-30T06:19:18;9.07;;;3.75;;
52102;SDS011;38101;53.126;6.878;2023-07-30T06:21:44;9.20;;;3.80;;
52102;SDS011;38101;53.126;6.878;2023-07-30T06:24:10;11.30;;;4.38;;
52102;SDS011;38101;53.126;6.878;2023-07-30T06:26:36;10.32;;;3.70;;
52102;SDS011;38101;53.126;6.878;2023-07-30T06:29:01;10.52;;;3.95;;
52102;SDS011;38101;53.126;6.878;2023-07-30T06:31:27;10.57;;;3.70;;
52102;SDS011;38101;53.126;6.878;2023-07-30T06:33:53;11.75;;;3.80;;
52102;SDS011;38101;53.126;6.878;2023-07-30T06:36:19;11.77;;;3.65;;
52102;SDS011;38101;53.126;6.878;2023-07-30T06:38:44;9.57;;;3.83;;
52102;SDS011;38101;53.126;6.878;2023-07-30T06:41:10;10.57;;;3.20;;
52102;SDS011;38101;53.126;6.878;2023-07-30T06:43:36;10.05;;;3.55;;
52102;SDS011;38101;53.126;6.878;2023-07-30T06:46:01;7.18;;;3.50;;
52102;SDS011;38101;53.126;6.878;2023-07-30T06:48:27;11.23;;;3.65;;
52102;SDS011;38101;53.126;6.878;2023-07-30T06:50:52;12.35;;;4.10;;
52102;SDS011;38101;53.126;6.878;2023-07-30T06:53:18;10.15;;;4.28;;
52102;SDS011;38101;53.126;6.878;2023-07-30T06:55:44;10.75;;;3.97;;
52102;SDS011;38101;53.126;6.878;2023-07-30T06:58:10;8.52;;;3.38;;
52102;SDS011;38101;53.126;6.878;2023-07-30T07:00:36;9.35;;;3.80;;
52102;SDS011;38101;53.126;6.878;2023-07-30T07:03:02;10.18;;;3.70;;
52102;SDS011;38101;53.126;6.878;2023-07-30T07:05:29;14.00;;;3.95;;
52102;SDS011;38101;53.126;6.878;2023-07-30T07:07:55;8.70;;;3.80;;
52102;SDS011;38101;53.126;6.878;2023-07-30T07:10:21;9.60;;;3.83;;
52102;SDS011;38101;53.126;6.878;2023-07-30T07:12:46;10.15;;;3.88;;
52102;SDS011;38101;53.126;6.878;2023-07-30T07:15:12;9.50;;;4.22;;
52102;SDS011;38101;53.126;6.878;2023-07-30T07:17:38;10.45;;;3.88;;
52102;SDS011;38101;53.126;6.878;2023-07-30T07:20:05;11.43;;;3.70;;
52102;SDS011;38101;53.126;6.878;2023-07-30T07:22:32;14.40;;;3.80;;
52102;SDS011;38101;53.126;6.878;2023-07-30T07:24:58;9.52;;;3.38;;
52102;SDS011;38101;53.126;6.878;2023-07-30T07:27:24;9.77;;;3.92;;
52102;SDS011;38101;53.126;6.878;2023-07-30T07:29:50;16.10;;;4.43;;
52102;SDS011;38101;53.126;6.878;2023-07-30T07:32:16;12.80;;;3.67;;
52102;SDS011;38101;53.126;6.878;2023-07-30T07:34:46;9.82;;;3.97;;
52102;SDS011;38101;53.126;6.878;2023-07-30T07:37:13;10.80;;;3.53;;
52102;SDS011;38101;53.126;6.878;2023-07-30T07:39:43;8.55;;;3.65;;
52102;SDS011;38101;53.126;6.878;2023-07-30T07:42:09;9.30;;;3.22;;
52102;SDS011;38101;53.126;6.878;2023-07-30T07:44:35;8.98;;;3.42;;
52102;SDS011;38101;53.126;6.878;2023-07-30T07:47:01;8.13;;;3.10;;
52102;SDS011;38101;53.126;6.878;2023-07-30T07:49:27;12.30;;;3.30;;
52102;SDS011;38101;53.126;6.878;2023-07-30T07:51:53;8.43;;;2.97;;
52102;SDS011;38101;53.126;6.878;2023-07-30T07:54:18;12.45;;;3.67;;
52102;SDS011;38101;53.126;6.878;2023-07-30T07:56:44;10.45;;;3.35;;
52102;SDS011;38101;53.126;6.878;2023-07-30T07:59:09;8.20;;;3.00;;
52102;SDS011;38101;53.126;6.878;2023-07-30T08:01:35;8.10;;;3.10;;
52102;SDS011;38101;53.126;6.878;2023-07-30T08:04:01;14.32;;;3.38;;
52102;SDS011;38101;53.126;6.878;2023-07-30T08:06:27;9.68;;;3.33;;
52102;SDS011;38101;53.126;6.878;2023-07-30T08:08:52;12.07;;;3.58;;
52102;SDS011;38101;53.126;6.878;2023-07-30T08:11:18;10.95;;;3.10;;
52102;SDS011;38101;53.126;6.878;2023-07-30T08:13:44;8.90;;;3.20;;
52102;SDS011;38101;53.126;6.878;2023-07-30T08:16:10;12.60;;;3.72;;
52102;SDS011;38101;53.126;6.878;2023-07-30T08:18:36;7.35;;;2.92;;
52102;SDS011;38101;53.126;6.878;2023-07-30T08:21:02;9.05;;;3.17;;
52102;SDS011;38101;53.126;6.878;2023-07-30T08:23:28;6.30;;;2.78;;
52102;SDS011;38101;53.126;6.878;2023-07-30T08:25:54;11.50;;;2.92;;
52102;SDS011;38101;53.126;6.878;2023-07-30T08:28:19;9.35;;;3.13;;
52102;SDS011;38101;53.126;6.878;2023-07-30T08:30:45;8.05;;;2.75;;
52102;SDS011;38101;53.126;6.878;2023-07-30T08:33:11;8.38;;;3.17;;
52102;SDS011;38101;53.126;6.878;2023-07-30T08:35:37;8.25;;;3.03;;
52102;SDS011;38101;53.126;6.878;2023-07-30T08:38:02;9.70;;;3.28;;
52102;SDS011;38101;53.126;6.878;2023-07-30T08:40:28;6.88;;;3.00;;
52102;SDS011;38101;53.126;6.878;2023-07-30T08:42:54;7.68;;;3.08;;
52102;SDS011;38101;53.126;6.878;2023-07-30T08:45:20;8.95;;;3.15;;
52102;SDS011;38101;53.126;6.878;2023-07-30T08:47:46;7.55;;;2.70;;
52102;SDS011;38101;53.126;6.878;2023-07-30T08:50:12;7.88;;;2.90;;
52102;SDS011;38101;53.126;6.878;2023-07-30T08:52:39;9.95;;;3.10;;
52102;SDS011;38101;53.126;6.878;2023-07-30T08:55:05;7.45;;;2.80;;
52102;SDS011;38101;53.126;6.878;2023-07-30T08:57:32;9.20;;;2.92;;
52102;SDS011;38101;53.126;6.878;2023-07-30T09:00:08;6.30;;;2.78;;
52102;SDS011;38101;53.126;6.878;2023-07-30T09:02:47;7.63;;;2.70;;
52102;SDS011;38101;53.126;6.878;2023-07-30T09:05:15;8.38;;;3.00;;
52102;SDS011;38101;53.126;6.878;2023-07-30T09:07:41;5.18;;;3.00;;
52102;SDS011;38101;53.126;6.878;2023-07-30T09:10:07;8.38;;;2.90;;
52102;SDS011;38101;53.126;6.878;2023-07-30T09:12:33;6.60;;;2.67;;
52102;SDS011;38101;53.126;6.878;2023-07-30T09:15:00;7.28;;;2.80;;
52102;SDS011;38101;53.126;6.878;2023-07-30T09:17:29;8.27;;;2.88;;
52102;SDS011;38101;53.126;6.878;2023-07-30T09:19:55;7.30;;;2.38;;
52102;SDS011;38101;53.126;6.878;2023-07-30T09:22:27;6.30;;;2.75;;
52102;SDS011;38101;53.126;6.878;2023-07-30T09:25:00;7.18;;;2.90;;
52102;SDS011;38101;53.126;6.878;2023-07-30T09:27:27;17.40;;;3.38;;
52102;SDS011;38101;53.126;6.878;2023-07-30T09:29:54;12.20;;;3.85;;
52102;SDS011;38101;53.126;6.878;2023-07-30T09:32:25;5.20;;;2.38;;
52102;SDS011;38101;53.126;6.878;2023-07-30T09:34:55;8.15;;;3.03;;
52102;SDS011;38101;53.126;6.878;2023-07-30T09:37:29;7.57;;;2.30;;
52102;SDS011;38101;53.126;6.878;2023-07-30T09:39:57;5.93;;;2.30;;
52102;SDS011;38101;53.126;6.878;2023-07-30T09:42:26;5.90;;;2.53;;
52102;SDS011;38101;53.126;6.878;2023-07-30T09:44:52;7.45;;;2.72;;
52102;SDS011;38101;53.126;6.878;2023-07-30T09:47:18;7.28;;;2.65;;
52102;SDS011;38101;53.126;6.878;2023-07-30T09:49:44;8.38;;;2.83;;
52102;SDS011;38101;53.126;6.878;2023-07-30T09:52:09;5.80;;;2.30;;
52102;SDS011;38101;53.126;6.878;2023-07-30T09:54:37;7.05;;;2.80;;
52102;SDS011;38101;53.126;6.878;2023-07-30T09:57:04;8.20;;;3.13;;
52102;SDS011;38101;53.126;6.878;2023-07-30T09:59:30;6.45;;;2.45;;
52102;SDS011;38101;53.126;6.878;2023-07-30T10:01:56;8.07;;;2.83;;
52102;SDS011;38101;53.126;6.878;2023-07-30T10:04:23;6.60;;;2.80;;
52102;SDS011;38101;53.126;6.878;2023-07-30T10:09:21;7.35;;;2.30;;
52102;SDS011;38101;53.126;6.878;2023-07-30T10:11:50;9.05;;;2.78;;
52102;SDS011;38101;53.126;6.878;2023-07-30T10:14:19;4.47;;;2.25;;
52102;SDS011;38101;53.126;6.878;2023-07-30T10:16:54;4.88;;;2.30;;
52102;SDS011;38101;53.126;6.878;2023-07-30T10:19:23;4.80;;;2.17;;
52102;SDS011;38101;53.126;6.878;2023-07-30T10:21:51;4.82;;;2.35;;
52102;SDS011;38101;53.126;6.878;2023-07-30T10:24:18;8.93;;;2.35;;
52102;SDS011;38101;53.126;6.878;2023-07-30T10:26:44;7.07;;;2.42;;
52102;SDS011;38101;53.126;6.878;2023-07-30T10:29:16;5.38;;;2.00;;
52102;SDS011;38101;53.126;6.878;2023-07-30T10:31:51;5.22;;;2.10;;
52102;SDS011;38101;53.126;6.878;2023-07-30T10:34:19;4.97;;;1.83;;
52102;SDS011;38101;53.126;6.878;2023-07-30T10:36:49;7.63;;;2.63;;
52102;SDS011;38101;53.126;6.878;2023-07-30T10:39:16;13.40;;;2.90;;
52102;SDS011;38101;53.126;6.878;2023-07-30T10:41:43;6.65;;;1.90;;
52102;SDS011;38101;53.126;6.878;2023-07-30T10:44:25;4.57;;;1.93;;
52102;SDS011;38101;53.126;6.878;2023-07-30T10:47:01;20.17;;;3.30;;
52102;SDS011;38101;53.126;6.878;2023-07-30T10:49:28;8.60;;;2.35;;
52102;SDS011;38101;53.126;6.878;2023-07-30T10:51:55;4.43;;;2.17;;
52102;SDS011;38101;53.126;6.878;2023-07-30T10:54:25;37.45;;;5.15;;
52102;SDS011;38101;53.126;6.878;2023-07-30T10:56:51;4.80;;;1.90;;
52102;SDS011;38101;53.126;6.878;2023-07-30T10:59:16;5.45;;;1.98;;
52102;SDS011;38101;53.126;6.878;2023-07-30T11:01:44;3.63;;;1.95;;
52102;SDS011;38101;53.126;6.878;2023-07-30T11:04:11;4.40;;;2.00;;
52102;SDS011;38101;53.126;6.878;2023-07-30T11:06:39;4.15;;;2.05;;
52102;SDS011;38101;53.126;6.878;2023-07-30T11:09:17;4.75;;;2.20;;
52102;SDS011;38101;53.126;6.878;2023-07-30T11:11:47;5.15;;;1.90;;
52102;SDS011;38101;53.126;6.878;2023-07-30T11:14:15;6.05;;;2.55;;
52102;SDS011;38101;53.126;6.878;2023-07-30T11:16:54;5.22;;;2.20;;
52102;SDS011;38101;53.126;6.878;2023-07-30T11:19:23;8.95;;;2.47;;
52102;SDS011;38101;53.126;6.878;2023-07-30T11:21:50;8.15;;;2.53;;
52102;SDS011;38101;53.126;6.878;2023-07-30T11:24:17;6.47;;;2.53;;
52102;SDS011;38101;53.126;6.878;2023-07-30T11:26:43;5.53;;;2.47;;
52102;SDS011;38101;53.126;6.878;2023-07-30T11:31:42;4.70;;;2.10;;
52102;SDS011;38101;53.126;6.878;2023-07-30T11:34:08;6.10;;;2.40;;
52102;SDS011;38101;53.126;6.878;2023-07-30T11:36:34;5.72;;;2.50;;
52102;SDS011;38101;53.126;6.878;2023-07-30T11:39:00;5.40;;;2.40;;
52102;SDS011;38101;53.126;6.878;2023-07-30T11:41:26;8.20;;;2.83;;
52102;SDS011;38101;53.126;6.878;2023-07-30T11:43:53;7.57;;;2.35;;
52102;SDS011;38101;53.126;6.878;2023-07-30T11:46:19;8.88;;;3.30;;
52102;SDS011;38101;53.126;6.878;2023-07-30T11:48:48;8.40;;;2.75;;
52102;SDS011;38101;53.126;6.878;2023-07-30T11:53:44;4.57;;;2.33;;
52102;SDS011;38101;53.126;6.878;2023-07-30T11:56:16;7.72;;;2.53;;
52102;SDS011;38101;53.126;6.878;2023-07-30T11:58:53;7.13;;;2.10;;
52102;SDS011;38101;53.126;6.878;2023-07-30T12:01:27;4.88;;;2.28;;
52102;SDS011;38101;53.126;6.878;2023-07-30T12:03:58;4.80;;;2.15;;
52102;SDS011;38101;53.126;6.878;2023-07-30T12:06:37;4.85;;;1.90;;
52102;SDS011;38101;53.126;6.878;2023-07-30T12:09:09;4.43;;;2.10;;
52102;SDS011;38101;53.126;6.878;2023-07-30T12:11:50;5.53;;;2.00;;
52102;SDS011;38101;53.126;6.878;2023-07-30T12:14:42;9.73;;;2.75;;
52102;SDS011;38101;53.126;6.878;2023-07-30T12:17:09;6.97;;;2.20;;
52102;SDS011;38101;53.126;6.878;2023-07-30T12:19:35;8.32;;;2.50;;
52102;SDS011;38101;53.126;6.878;2023-07-30T12:22:01;6.35;;;2.78;;
52102;SDS011;38101;53.126;6.878;2023-07-30T12:24:27;6.43;;;2.28;;
52102;SDS011;38101;53.126;6.878;2023-07-30T12:26:53;6.32;;;2.90;;
52102;SDS011;38101;53.126;6.878;2023-07-30T12:29:18;5.40;;;2.33;;
52102;SDS011;38101;53.126;6.878;2023-07-30T12:31:44;5.70;;;2.30;;
52102;SDS011;38101;53.126;6.878;2023-07-30T12:34:11;5.38;;;2.30;;
52102;SDS011;38101;53.126;6.878;2023-07-30T12:36:37;7.05;;;2.40;;
52102;SDS011;38101;53.126;6.878;2023-07-30T12:39:03;5.57;;;2.10;;
52102;SDS011;38101;53.126;6.878;2023-07-30T12:41:28;8.05;;;2.50;;
52102;SDS011;38101;53.126;6.878;2023-07-30T12:43:55;6.93;;;2.40;;
52102;SDS011;38101;53.126;6.878;2023-07-30T12:46:22;6.43;;;2.17;;
52102;SDS011;38101;53.126;6.878;2023-07-30T12:48:48;6.57;;;2.33;;
52102;SDS011;38101;53.126;6.878;2023-07-30T12:51:14;7.07;;;1.92;;
52102;SDS011;38101;53.126;6.878;2023-07-30T12:53:40;3.03;;;1.80;;
52102;SDS011;38101;53.126;6.878;2023-07-30T12:56:05;5.63;;;1.63;;
52102;SDS011;38101;53.126;6.878;2023-07-30T12:58:31;3.05;;;1.42;;
52102;SDS011;38101;53.126;6.878;2023-07-30T13:00:57;2.63;;;1.40;;
52102;SDS011;38101;53.126;6.878;2023-07-30T13:03:22;4.20;;;1.50;;
52102;SDS011;38101;53.126;6.878;2023-07-30T13:05:48;4.32;;;1.50;;
52102;SDS011;38101;53.126;6.878;2023-07-30T13:08:14;2.85;;;1.50;;
52102;SDS011;38101;53.126;6.878;2023-07-30T13:10:39;2.75;;;1.15;;
52102;SDS011;38101;53.126;6.878;2023-07-30T13:13:05;3.70;;;1.30;;
52102;SDS011;38101;53.126;6.878;2023-07-30T13:15:31;2.45;;;1.27;;
52102;SDS011;38101;53.126;6.878;2023-07-30T13:17:56;3.90;;;1.50;;
52102;SDS011;38101;53.126;6.878;2023-07-30T13:20:22;49.83;;;5.60;;
52102;SDS011;38101;53.126;6.878;2023-07-30T13:22:49;21.60;;;2.92;;
52102;SDS011;38101;53.126;6.878;2023-07-30T13:25:16;5.25;;;1.70;;
52102;SDS011;38101;53.126;6.878;2023-07-30T13:27:41;5.43;;;1.42;;
52102;SDS011;38101;53.126;6.878;2023-07-30T13:30:07;9.13;;;2.38;;
52102;SDS011;38101;53.126;6.878;2023-07-30T13:32:33;7.00;;;1.90;;
52102;SDS011;38101;53.126;6.878;2023-07-30T13:34:59;5.07;;;2.10;;
52102;SDS011;38101;53.126;6.878;2023-07-30T13:37:24;4.93;;;1.77;;
52102;SDS011;38101;53.126;6.878;2023-07-30T13:39:50;5.45;;;1.80;;
52102;SDS011;38101;53.126;6.878;2023-07-30T13:42:16;6.47;;;2.13;;
52102;SDS011;38101;53.126;6.878;2023-07-30T13:44:41;5.95;;;2.33;;
52102;SDS011;38101;53.126;6.878;2023-07-30T13:47:07;5.60;;;2.00;;
52102;SDS011;38101;53.126;6.878;2023-07-30T13:49:33;5.07;;;2.10;;
52102;SDS011;38101;53.126;6.878;2023-07-30T13:51:59;6.55;;;2.00;;
52102;SDS011;38101;53.126;6.878;2023-07-30T13:54:24;5.03;;;2.10;;
52102;SDS011;38101;53.126;6.878;2023-07-30T13:56:50;5.63;;;2.15;;
52102;SDS011;38101;53.126;6.878;2023-07-30T13:59:16;7.38;;;2.20;;
52102;SDS011;38101;53.126;6.878;2023-07-30T14:01:41;4.68;;;2.00;;
52102;SDS011;38101;53.126;6.878;2023-07-30T14:04:07;6.40;;;2.10;;
52102;SDS011;38101;53.126;6.878;2023-07-30T14:06:33;7.22;;;2.45;;
52102;SDS011;38101;53.126;6.878;2023-07-30T14:08:58;5.68;;;1.90;;
52102;SDS011;38101;53.126;6.878;2023-07-30T14:11:25;6.25;;;2.33;;
52102;SDS011;38101;53.126;6.878;2023-07-30T14:13:52;8.30;;;2.30;;
52102;SDS011;38101;53.126;6.878;2023-07-30T14:16:18;6.10;;;1.77;;
52102;SDS011;38101;53.126;6.878;2023-07-30T14:18:44;4.57;;;2.00;;
52102;SDS011;38101;53.126;6.878;2023-07-30T14:21:09;3.35;;;1.65;;
52102;SDS011;38101;53.126;6.878;2023-07-30T14:23:36;5.15;;;2.20;;
52102;SDS011;38101;53.126;6.878;2023-07-30T14:26:02;4.95;;;1.95;;
52102;SDS011;38101;53.126;6.878;2023-07-30T14:28:29;6.30;;;2.35;;
52102;SDS011;38101;53.126;6.878;2023-07-30T14:30:54;7.65;;;2.30;;
52102;SDS011;38101;53.126;6.878;2023-07-30T14:33:20;6.20;;;1.98;;
52102;SDS011;38101;53.126;6.878;2023-07-30T14:35:46;6.20;;;2.00;;
52102;SDS011;38101;53.126;6.878;2023-07-30T14:38:11;6.25;;;1.80;;
52102;SDS011;38101;53.126;6.878;2023-07-30T14:40:38;6.72;;;2.05;;
52102;SDS011;38101;53.126;6.878;2023-07-30T14:43:03;6.15;;;2.10;;
52102;SDS011;38101;53.126;6.878;2023-07-30T14:45:29;8.18;;;2.25;;
52102;SDS011;38101;53.126;6.878;2023-07-30T14:47:55;7.05;;;2.20;;
52102;SDS011;38101;53.126;6.878;2023-07-30T14:50:20;5.25;;;1.98;;